Flight Track Log - Related Links

Times and Time Zones

All times are in EDT time to prevent confusion due to time zone crossing. See the AAY894 flight status page for this flight to view local times or setup timezone preferences in your user account.

Time Position Orientation Groundspeed Altitude Reporting Facility
EDT Latitude Longitude Course Direction KTS MPH feet Rate Location/Type
Sun 07:44:39 AM 27.8833 -82.6833 180° South 172 198 800  Level Tampa TRACON
Sun 07:45:21 AM 27.8500 -82.6833 180° South 188 216 1,900 1,941 Climbing Tampa TRACON
Sun 07:46:21 AM 27.8167 -82.7167 221° Southwest 228 262 4,100 2,286 Climbing Tampa TRACON
Sun 07:47:27 AM 27.8667 -82.7500 329° Northwest 298 343 6,700 2,372 Climbing Tampa TRACON
Sun 07:49:13 AM 28.0067 -82.6908 20° North 294 338 10,900 2,048 Climbing Miami Center
Sun 07:50:14 AM 28.1094 -82.6850 North 357 411 12,400 1,967 Climbing Miami Center
Sun 07:51:15 AM 28.2214 -82.6781 North 388 447 14,900 2,262 Climbing Miami Center
Sun 07:52:16 AM 28.3367 -82.6731 North 404 465 17,000 2,115 Climbing Miami Center
Sun 07:53:17 AM 28.4581 -82.6653 North 428 493 19,200 2,016 Climbing Miami Center
Sun 07:54:18 AM 28.5806 -82.6583 North 437 503 21,100 1,721 Climbing Miami Center
Sun 07:55:19 AM 28.7036 -82.6519 North 449 517 22,700 1,574 Climbing Miami Center
Sun 07:56:20 AM 28.8325 -82.6439 North 461 531 24,300 2,000 Climbing Miami Center
Sun 07:57:22 AM 28.9875 -82.6369 North 462 532 26,800 2,000 Climbing Miami Center
Sun 07:58:23 AM 29.1139 -82.6292 North 461 531 28,400 1,475 Climbing Miami Center
Sun 07:59:24 AM 29.2397 -82.6217 North 458 527 29,800 787 Climbing Miami Center
Sun 08:00:25 AM 29.3647 -82.6153 North 453 521 30,000 49 Climbing Miami Center
Sun 08:01:26 AM 29.4900 -82.6089 North 453 521 29,900 98 Descending Miami Center
Sun 08:02:27 AM 29.6156 -82.6025 North 454 522 30,200 492 Climbing Miami Center
Sun 08:03:28 AM 29.7417 -82.5956 North 456 525 30,900 344 Climbing Miami Center
Sun 08:04:29 AM 29.8675 -82.5894 North 456 525 30,900  Level Miami Center
Sun 08:05:39 AM 30.0261 -82.5783 North 459 528 30,900  Level Jacksonville Center
Sun 08:06:39 AM 30.1533 -82.5778 360° North 459 528 30,900 50 Level Jacksonville Center
Sun 08:07:39 AM 30.2808 -82.5703 North 459 528 31,000  Climbing Jacksonville Center
Sun 08:08:39 AM 30.4058 -82.5578 North 459 528 30,900 -50 Descending Jacksonville Center
Sun 08:09:39 AM 30.5353 -82.5428 North 459 528 30,900  Level Jacksonville Center
Sun 08:10:39 AM 30.6606 -82.5231 North 459 528 30,900  Level Jacksonville Center
Sun 08:11:39 AM 30.7858 -82.5081 North 454 522 30,900 250 Level Jacksonville Center
Sun 08:12:39 AM 30.9131 -82.4931 North 454 522 31,400 650 Climbing Jacksonville Center
Sun 08:13:39 AM 31.0406 -82.4756 North 454 522 32,200 750 Climbing Jacksonville Center
Sun 08:14:39 AM 31.1658 -82.4603 North 454 522 32,900 400 Climbing Jacksonville Center
Sun 08:15:39 AM 31.2931 -82.4428 North 461 531 33,000 50 Climbing Jacksonville Center
Sun 08:16:39 AM 31.4350 -82.4203 North 466 536 33,000  Level Jacksonville Center
Sun 08:17:39 AM 31.5622 -82.4050 North 466 536 33,000  Level Jacksonville Center
Sun 08:18:39 AM 31.6894 -82.3872 North 460 529 33,000  Level Jacksonville Center
Sun 08:20:53 AM 31.9731 -82.3519 North 462 532 33,000  Level Atlanta Center
Sun 08:21:53 AM 32.1000 -82.3350 North 462 532 33,000  Level Atlanta Center
Sun 08:22:53 AM 32.2314 -82.3153 North 462 532 33,000  Level Atlanta Center
Sun 08:23:53 AM 32.3458 -82.3006 North 462 532 33,000  Level Atlanta Center
Sun 08:24:53 AM 32.4731 -82.2833 North 462 532 33,000  Level Atlanta Center
Sun 08:25:53 AM 32.6042 -82.2658 North 462 532 33,000  Level Atlanta Center
Sun 08:26:53 AM 32.7314 -82.2511 North 462 532 33,000  Level Atlanta Center
Sun 08:27:53 AM 32.8603 -82.2286 North 462 532 33,000  Level Atlanta Center
Sun 08:28:53 AM 32.9917 -82.2136 North 462 532 33,000  Level Atlanta Center
Sun 08:29:53 AM 33.1186 -82.1936 North 462 532 33,000  Level Atlanta Center
Sun 08:30:53 AM 33.2500 -82.1733 North 462 532 33,000  Level Atlanta Center
Sun 08:31:53 AM 33.3767 -82.1458 10° North 462 532 33,000  Level Atlanta Center
Sun 08:32:53 AM 33.5161 -82.1128 11° North 469 540 33,000  Level Atlanta Center
Sun 08:33:53 AM 33.6450 -82.0850 10° North 469 540 33,000  Level Atlanta Center
Sun 08:34:53 AM 33.7742 -82.0569 10° North 469 540 33,000  Level Atlanta Center
Sun 08:35:53 AM 33.9008 -82.0292 10° North 464 534 33,000  Level Atlanta Center
Sun 08:36:53 AM 34.0278 -82.0011 10° North 464 534 33,000  Level Atlanta Center
Sun 08:37:53 AM 34.1547 -81.9728 10° North 464 534 33,000  Level Atlanta Center
Sun 08:38:53 AM 34.2794 -81.9472 10° North 464 534 33,000  Level Atlanta Center
Sun 08:39:53 AM 34.4061 -81.9164 11° North 464 534 33,000  Level Atlanta Center
Sun 08:40:53 AM 34.5186 -81.8933 10° North 464 534 33,000  Level Atlanta Center
Sun 08:41:53 AM 34.6556 -81.8619 11° North 464 534 33,000  Level Atlanta Center
Sun 08:42:53 AM 34.7700 -81.8414 North 464 534 33,000  Level Atlanta Center
Sun 08:43:53 AM 34.8947 -81.8078 12° North 464 534 33,000  Level Atlanta Center
Sun 08:44:53 AM 35.0194 -81.7789 11° North 464 534 33,000  Level Atlanta Center
Sun 08:45:53 AM 35.1461 -81.7553 North 464 534 33,000  Level Atlanta Center
Sun 08:46:53 AM 35.2689 -81.7264 11° North 464 534 33,000  Level Atlanta Center
Sun 08:47:53 AM 35.3914 -81.6975 11° North 452 520 33,000  Level Atlanta Center
Sun 08:48:53 AM 35.5158 -81.6683 11° North 452 520 33,000  Level Atlanta Center
Sun 08:49:53 AM 35.6406 -81.6392 11° North 452 520 33,000  Level Atlanta Center
Sun 08:50:53 AM 35.7631 -81.6075 12° North 446 513 33,000  Level Atlanta Center
Sun 08:51:53 AM 35.8897 -81.5781 11° North 451 519 33,000  Level Atlanta Center
Sun 08:52:53 AM 36.0225 -81.5433 12° North 446 513 33,000  Level Atlanta Center
Sun 08:53:53 AM 36.1450 -81.5189 North 446 513 33,000  Level Atlanta Center
Sun 08:54:53 AM 36.2653 -81.4869 12° North 446 513 33,000  Level Atlanta Center
Sun 08:55:53 AM 36.3878 -81.4597 10° North 446 513 33,000  Level Atlanta Center
Sun 08:56:53 AM 36.5081 -81.4300 11° North 446 513 33,000  Level Atlanta Center
Sun 08:58:43 AM 36.7106 -81.3822 11° North 443 510 33,000  Level Indianapolis Center
Sun 08:59:45 AM 36.8328 -81.3531 11° North 444 511 33,000  Level Indianapolis Center
Sun 09:00:46 AM 36.9794 -81.3178 11° North 444 511 33,000  Level Indianapolis Center
Sun 09:01:48 AM 37.1019 -81.2875 11° North 444 511 33,000  Level Indianapolis Center
Sun 09:02:49 AM 37.2236 -81.2589 11° North 444 511 33,000  Level Indianapolis Center
Sun 09:03:50 AM 37.3453 -81.2289 11° North 444 511 33,000  Level Indianapolis Center
Sun 09:04:52 AM 37.4678 -81.1978 11° North 445 512 33,000  Level Indianapolis Center
Sun 09:05:53 AM 37.5900 -81.1672 11° North 445 512 33,000  Level Indianapolis Center
Sun 09:06:55 AM 37.7122 -81.1367 11° North 446 513 33,000  Level Indianapolis Center
Sun 09:07:56 AM 37.8469 -81.0986 13° North 446 513 33,000  Level Indianapolis Center
Sun 09:08:58 AM 37.9658 -81.0653 12° North 444 511 33,000  Level Indianapolis Center
Sun 09:09:59 AM 38.0861 -81.0317 12° North 442 509 33,000  Level Indianapolis Center
Sun 09:11:01 AM 38.2047 -80.9989 12° North 442 509 33,000  Level Indianapolis Center
Sun 09:12:02 AM 38.3225 -80.9656 13° North 441 507 33,000  Level Indianapolis Center
Sun 09:13:04 AM 38.4406 -80.9314 13° North 439 505 33,000  Level Indianapolis Center
Sun 09:14:05 AM 38.5828 -80.8897 13° North 439 505 33,000  Level Indianapolis Center
Sun 09:15:07 AM 38.7017 -80.8544 13° North 439 505 33,000  Level Indianapolis Center
Sun 09:16:08 AM 38.8208 -80.8197 13° North 439 505 33,000  Level Indianapolis Center
Sun 09:17:10 AM 38.9394 -80.7836 13° North 440 506 33,000  Level Indianapolis Center
Sun 09:18:12 AM 39.0594 -80.7483 13° North 440 506 33,000  Level Indianapolis Center
Sun 09:19:13 AM 39.1783 -80.7119 13° North 440 506 33,000  Level Indianapolis Center
Sun 09:20:15 AM 39.2967 -80.6761 13° North 440 506 33,000  Level Indianapolis Center
Sun 09:21:16 AM 39.4144 -80.6300 17° North 440 506 33,000  Level Indianapolis Center
Sun 09:21:50 AM 39.4911 -80.5983 18° North 442 509 33,000  Level Cleveland Center
Sun 09:22:52 AM 39.6075 -80.5481 18° North 441 507 33,000  Level Cleveland Center
Sun 09:23:54 AM 39.7244 -80.4983 18° North 442 509 33,000  Level Cleveland Center
Sun 09:24:55 AM 39.8411 -80.4458 19° North 442 509 33,000  Level Cleveland Center
Sun 09:25:57 AM 39.9822 -80.3856 18° North 446 513 33,000  Level Cleveland Center
Sun 09:26:59 AM 40.0975 -80.3339 19° North 443 510 33,000  Level Cleveland Center
Sun 09:28:00 AM 40.2150 -80.2822 19° North 441 507 33,000 -146 Level Cleveland Center
Sun 09:29:02 AM 40.3411 -80.2269 18° North 442 509 32,700 -581 Descending Cleveland Center
Sun 09:30:04 AM 40.4597 -80.1731 19° North 449 517 31,800 -829 Descending Cleveland Center
Sun 09:31:05 AM 40.5822 -80.1200 18° North 460 529 31,000 -390 Descending Cleveland Center
Sun 09:32:07 AM 40.7017 -80.0675 18° North 455 524 31,000  Level Cleveland Center
Sun 09:33:09 AM 40.8211 -80.0131 19° North 455 524 31,000 -390 Level Cleveland Center
Sun 09:34:10 AM 40.9450 -79.9575 19° North 455 524 30,200 -829 Descending Cleveland Center
Sun 09:35:12 AM 41.0647 -79.9033 19° North 455 524 29,300 -1,016 Descending Cleveland Center
Sun 09:36:14 AM 41.2061 -79.8383 19° North 456 525 28,100 -634 Descending Cleveland Center
Sun 09:37:15 AM 41.3283 -79.7831 19° North 462 532 28,000 -49 Descending Cleveland Center
Sun 09:38:17 AM 41.4506 -79.7253 20° North 464 534 28,000  Level Cleveland Center
Sun 09:39:18 AM 41.5722 -79.6692 19° North 464 534 28,000 -683 Level Cleveland Center
Sun 09:40:20 AM 41.6939 -79.6136 19° North 462 532 26,600 -1,694 Descending Cleveland Center
Sun 09:41:22 AM 41.8103 -79.5581 20° North 448 516 24,500 -2,390 Descending Cleveland Center
Sun 09:42:23 AM 41.9442 -79.4972 19° North 426 490 21,700 -2,537 Descending Cleveland Center
Sun 09:43:25 AM 42.0514 -79.4478 19° North 413 475 19,300 -2,177 Descending Cleveland Center
Sun 09:44:27 AM 42.1567 -79.3986 19° North 403 464 17,200 -2,000 Descending Cleveland Center
Sun 09:45:28 AM 42.2572 -79.3503 20° North 386 444 15,200 -2,098 Descending Cleveland Center
Sun 09:46:30 AM 42.3547 -79.3031 20° North 379 436 12,900 -1,984 Descending Cleveland Center
Sun 09:47:32 AM 42.4619 -79.2531 19° North 363 418 11,100 -1,463 Descending Cleveland Center
Sun 09:48:33 AM 42.5497 -79.2136 18° North 320 368 9,900 -1,415 Descending Cleveland Center
Sun 09:49:35 AM 42.6328 -79.1750 19° North 306 352 8,200 -1,500 Descending Cleveland Center
Sun 09:50:37 AM 42.7083 -79.1394 19° North 303 349 6,800 -1,317 Descending Cleveland Center
Sun 09:51:38 AM 42.7789 -79.0903 27° Northeast 279 321 5,500 -1,366 Descending Cleveland Center
Sun 09:52:40 AM 42.8394 -79.0147 42° Northeast 279 321 4,000 -726 Descending Cleveland Center
Sun 09:53:42 AM 42.9003 -78.9400 42° Northeast 281 323 4,000  Level Cleveland Center
Sun 09:54:44 AM 42.9586 -78.8689 42° Northeast 275 316 4,000 -293 Level Cleveland Center
Sun 09:55:45 AM 43.0114 -78.8139 37° Northeast 253 291 3,400 -829 Descending Cleveland Center
Sun 09:56:47 AM 43.0831 -78.8100 North 250 288 2,300 -871 Descending Cleveland Center
Sun 09:57:49 AM 43.1092 -78.8553 308° West 174 200 1,600 -435 Descending Cleveland Center
Sun 09:58:51 AM 43.1047 -78.9075 263° West 158 182 1,400 -194 Descending Cleveland Center
Sun 10:00:00 AM 43.1000 -78.9333 316° Northwest  Level FlightAware Approximate

Login

Don't have an account? Register now (free) for customized features, flight alerts, and more!